Time;durP1;ratioP1;P1;durP2;ratioP2;P2;SDS_P1;SDS_P2;PMS_P1;PMS_P2;Temp;Humidity;BMP_temperature;BMP_pressure;BME280_temperature;BME280_humidity;BME280_pressure;Samples;Min_cycle;Max_cycle;Signal;HPM_P1;HPM_P2
2023/05/27 00:00:45;;;;;;;14.45;8.38;;;;;;;15.38;100.00;94776.75;5028724;28;20036;-79
2023/05/27 00:03:11;;;;;;;14.82;8.25;;;;;;;15.37;100.00;94785.75;5061972;28;20052;-79
2023/05/27 00:05:55;;;;;;;15.65;8.18;;;;;;;15.35;100.00;94786.06;5044874;28;20062;-79
2023/05/27 00:08:39;;;;;;;24.40;9.27;;;;;;;15.37;100.00;94788.41;5061694;28;20027;-79
2023/05/27 00:11:23;;;;;;;14.30;9.68;;;;;;;15.40;100.00;94788.63;5079571;28;20446;-79
2023/05/27 00:14:07;;;;;;;13.43;8.95;;;;;;;15.29;100.00;94789.06;5061535;28;20074;-79
2023/05/27 00:16:35;;;;;;;13.35;9.00;;;;;;;15.45;100.00;94781.69;5079019;28;20021;-79
2023/05/27 00:19:19;;;;;;;15.40;8.30;;;;;;;15.53;100.00;94786.31;5061616;28;20101;-79
2023/05/27 00:21:45;;;;;;;17.48;8.45;;;;;;;15.73;100.00;94787.84;5079159;28;20035;-79
2023/05/27 00:24:10;;;;;;;12.95;8.15;;;;;;;15.79;100.00;94786.69;5044877;28;20028;-79
2023/05/27 00:26:36;;;;;;;13.60;7.90;;;;;;;15.76;100.00;94789.13;5044566;28;20024;-79
2023/05/27 00:29:01;;;;;;;17.45;8.73;;;;;;;15.69;100.00;94782.34;5061143;28;20024;-79
2023/05/27 00:31:27;;;;;;;14.77;8.27;;;;;;;15.52;100.00;94788.16;5061321;28;20028;-79
2023/05/27 00:33:52;;;;;;;14.02;8.20;;;;;;;15.66;100.00;94788.22;5061323;28;20028;-79
2023/05/27 00:36:18;;;;;;;14.68;7.97;;;;;;;15.89;100.00;94775.19;5060972;28;20107;-79
2023/05/27 00:38:43;;;;;;;14.82;8.27;;;;;;;15.89;100.00;94777.03;5044715;28;20117;-79
2023/05/27 00:41:12;;;;;;;12.77;8.15;;;;;;;15.96;100.00;94777.44;5044086;28;20032;-79
2023/05/27 00:43:56;;;;;;;12.77;7.70;;;;;;;16.19;100.00;94767.78;5060948;28;20035;-79
2023/05/27 00:46:21;;;;;;;10.40;7.22;;;;;;;16.16;100.00;94772.91;5078563;28;20031;-79
2023/05/27 00:48:48;;;;;;;9.57;6.90;;;;;;;16.25;100.00;94768.47;5078843;28;20020;-79
2023/05/27 00:51:51;;;;;;;10.95;6.80;;;;;;;16.28;100.00;94769.75;5060874;28;20446;-79
2023/05/27 00:54:16;;;;;;;13.27;7.30;;;;;;;16.25;100.00;94768.47;5077903;28;20028;-79
2023/05/27 00:57:19;;;;;;;11.60;7.63;;;;;;;16.23;100.00;94754.78;5060256;28;20024;-79
2023/05/27 00:59:45;;;;;;;13.77;8.60;;;;;;;15.96;100.00;94759.75;5078379;28;20047;-79
2023/05/27 01:02:10;;;;;;;13.35;7.95;;;;;;;15.83;100.00;94757.84;5059866;28;20044;-79
2023/05/27 01:04:55;;;;;;;11.57;7.88;;;;;;;16.05;100.00;94762.50;5060604;28;20033;-79
2023/05/27 01:07:30;;;;;;;16.65;8.75;;;;;;;15.80;100.00;94759.19;5060515;28;20056;-79
2023/05/27 01:13:09;;;;;;;18.77;8.30;;;;;;;15.67;100.00;94762.59;5077896;28;20040;-79
2023/05/27 01:15:34;;;;;;;;;;;;;;;15.88;100.00;94751.69;5060506;28;20345;-79
2023/05/27 01:18:03;;;;;;;15.35;8.73;;;;;;;15.52;100.00;94747.78;5060415;28;19912;-79
2023/05/27 01:20:51;;;;;;;14.63;7.68;;;;;;;15.61;100.00;94743.41;5078444;28;20039;-79
2023/05/27 01:23:17;;;;;;;13.00;8.07;;;;;;;15.63;100.00;94737.84;5077838;28;20032;-79
2023/05/27 01:26:01;;;;;;;15.95;9.60;;;;;;;15.07;100.00;94746.34;5059856;28;20150;-79
2023/05/27 01:28:27;;;;;;;19.90;8.77;;;;;;;14.96;100.00;94745.69;5060751;28;20032;-79
2023/05/27 01:37:22;;;;;;;13.65;8.88;;;;;;;15.16;100.00;94737.75;5053686;28;20039;-78
2023/05/27 01:40:07;;;;;;;14.77;8.85;;;;;;;15.35;100.00;94741.19;5023419;28;20441;-79
2023/05/27 01:42:35;;;;;;;13.73;8.82;;;;;;;15.24;100.00;94755.59;5039881;28;20024;-79
2023/05/27 01:45:02;;;;;;;15.45;10.10;;;;;;;15.07;100.00;94745.56;5057513;28;20146;-79
2023/05/27 01:47:27;;;;;;;18.73;9.30;;;;;;;15.01;100.00;94744.84;5023482;28;20115;-79
2023/05/27 01:52:37;;;;;;;19.40;9.95;;;;;;;15.16;100.00;94754.41;5042644;28;20120;-79
2023/05/27 01:55:04;;;;;;;16.55;8.68;;;;;;;15.24;100.00;94751.09;5039571;28;20072;-79
2023/05/27 02:00:15;;;;;;;15.25;9.57;;;;;;;15.51;100.00;94751.50;5062215;28;20121;-79
2023/05/27 02:02:42;;;;;;;15.00;9.57;;;;;;;15.38;100.00;94748.53;5059690;28;20421;-79
2023/05/27 02:08:10;;;;;;;14.32;8.57;;;;;;;15.59;100.00;94745.53;5062076;28;20031;-78
2023/05/27 02:10:35;;;;;;;19.15;9.40;;;;;;;15.35;100.00;94749.09;5077025;28;20349;-79
2023/05/27 02:13:01;;;;;;;13.07;8.18;;;;;;;15.42;100.00;94751.34;5058512;28;20245;-79
2023/05/27 02:15:26;;;;;;;19.08;9.13;;;;;;;15.35;100.00;94754.38;5077164;28;20028;-79
2023/05/27 02:17:55;;;;;;;21.35;9.82;;;;;;;15.49;100.00;94758.91;5077042;28;20029;-79
2023/05/27 02:20:23;;;;;;;15.60;9.02;;;;;;;15.60;100.00;94755.03;5042878;28;20388;-79
2023/05/27 02:22:52;;;;;;;12.57;7.22;;;;;;;15.79;100.00;94760.28;5042846;28;20127;-79
2023/05/27 02:25:18;;;;;;;13.07;8.15;;;;;;;15.83;100.00;94757.84;5059348;28;20024;-79
2023/05/27 02:27:47;;;;;;;11.05;7.38;;;;;;;16.03;100.00;94761.22;5076594;28;20031;-78
2023/05/27 02:30:13;;;;;;;18.60;11.82;;;;;;;15.58;100.00;94767.75;5059757;28;20401;-79
2023/05/27 02:35:42;;;;;;;19.83;13.35;;;;;;;15.72;100.00;94790.78;5076370;28;20048;-78
2023/05/27 02:38:07;;;;;;;27.48;14.70;;;;;;;15.73;100.00;94779.94;5058444;28;20119;-78
2023/05/27 02:40:32;;;;;;;27.70;15.82;;;;;;;15.62;100.00;94781.94;5075365;28;20421;-78
2023/05/27 02:43:20;;;;;;;27.25;15.02;;;;;;;15.52;100.00;94779.47;5057346;28;20085;-79
2023/05/27 02:45:45;;;;;;;28.30;16.63;;;;;;;15.38;100.00;94777.56;5074936;28;20082;-78
2023/05/27 02:48:29;;;;;;;27.88;16.13;;;;;;;15.49;100.00;94772.09;5058053;28;20036;-78
2023/05/27 02:50:55;;;;;;;33.72;18.25;;;;;;;15.29;100.00;94776.63;5058787;28;20033;-78
2023/05/27 02:53:20;;;;;;;33.80;18.33;;;;;;;15.34;100.00;94776.53;5058924;28;20028;-79
2023/05/27 02:55:46;;;;;;;36.47;20.83;;;;;;;15.30;100.00;94780.84;5041970;28;20043;-79
2023/05/27 02:58:11;;;;;;;34.65;21.45;;;;;;;15.19;100.00;94780.22;5076447;28;20044;-79
2023/05/27 03:00:55;;;;;;;30.75;19.58;;;;;;;15.24;100.00;94777.50;5076609;28;20039;-79
2023/05/27 03:03:21;;;;;;;26.90;17.65;;;;;;;15.28;100.00;94772.44;5042069;28;20056;-79
2023/05/27 03:05:47;;;;;;;27.27;18.23;;;;;;;15.26;100.00;94775.34;5058322;28;20169;-79
2023/05/27 03:08:12;;;;;;;37.58;22.40;;;;;;;15.11;100.00;94775.56;5073616;28;20032;-78
2023/05/27 03:10:38;;;;;;;35.80;19.98;;;;;;;15.19;100.00;94779.41;5055270;28;20032;-78
2023/05/27 03:13:04;;;;;;;34.70;20.17;;;;;;;15.20;100.00;94776.50;5051039;28;20384;-78
2023/05/27 03:15:31;;;;;;;36.80;20.52;;;;;;;15.34;100.00;94776.53;5038263;28;20048;-78
2023/05/27 03:17:57;;;;;;;32.22;19.85;;;;;;;15.45;100.00;94776.41;5042773;28;20504;-79
2023/05/27 03:23:25;;;;;;;31.58;19.48;;;;;;;15.36;100.00;94778.91;5045413;28;20036;-79
2023/05/27 03:26:09;;;;;;;32.53;19.48;;;;;;;15.37;100.00;94780.47;5059712;28;20041;-79
2023/05/27 03:28:34;;;;;;;41.05;23.23;;;;;;;15.25;100.00;94786.22;5042490;28;20471;-78
2023/05/27 03:31:18;;;;;;;40.60;20.80;;;;;;;14.99;100.00;94786.56;5042497;28;20119;-79
2023/05/27 03:33:44;;;;;;;34.55;19.95;;;;;;;15.27;100.00;94789.34;5059995;28;20035;-78
2023/05/27 03:36:09;;;;;;;37.72;20.50;;;;;;;15.12;100.00;94792.97;5041985;28;20424;-79
2023/05/27 03:38:35;;;;;;;34.47;19.20;;;;;;;15.23;100.00;94791.75;5025634;28;20075;-78
2023/05/27 03:44:04;;;;;;;39.17;21.92;;;;;;;15.27;100.00;94781.41;5059828;28;20091;-79
2023/05/27 03:46:29;;;;;;;41.88;21.48;;;;;;;15.38;100.00;94777.56;5059620;28;20039;-79
2023/05/27 03:48:54;;;;;;;37.20;20.33;;;;;;;15.41;100.00;94778.81;5059599;28;20103;-79
2023/05/27 03:51:20;;;;;;;34.78;21.17;;;;;;;15.54;100.00;94780.72;5056906;28;20416;-78
2023/05/27 03:53:46;;;;;;;32.38;20.33;;;;;;;15.52;100.00;94785.53;5061624;28;20032;-79
2023/05/27 03:56:11;;;;;;;37.95;20.35;;;;;;;15.60;100.00;94784.09;5078893;28;20051;-79
2023/05/27 04:01:21;;;;;;;39.78;23.23;;;;;;;15.02;100.00;94795.75;5064347;28;20102;-79
2023/05/27 04:03:48;;;;;;;37.40;21.45;;;;;;;15.22;100.00;94798.09;5061664;28;20433;-79
2023/05/27 04:06:13;;;;;;;48.58;23.20;;;;;;;15.08;100.00;94791.97;5061297;28;20449;-79
2023/05/27 04:08:57;;;;;;;43.67;24.17;;;;;;;14.94;100.00;94795.31;5061496;28;20028;-79
2023/05/27 04:11:26;;;;;;;39.50;22.63;;;;;;;15.27;100.00;94792.75;5061669;28;20070;-79
2023/05/27 04:13:51;;;;;;;32.35;20.65;;;;;;;15.48;100.00;94796.94;5045084;28;20472;-79
2023/05/27 04:19:02;;;;;;;38.03;21.13;;;;;;;15.46;100.00;94807.00;5064175;28;20043;-78
2023/05/27 04:21:27;;;;;;;48.15;22.10;;;;;;;15.22;100.00;94808.66;5061516;28;20107;-79
2023/05/27 04:24:12;;;;;;;40.92;22.33;;;;;;;15.07;100.00;94808.88;5061398;28;20055;-78
2023/05/27 04:26:38;;;;;;;38.72;22.50;;;;;;;15.07;100.00;94814.16;5078877;28;20028;-78
2023/05/27 04:29:05;;;;;;;38.03;23.20;;;;;;;15.05;100.00;94819.72;5042147;28;20037;-79
2023/05/27 04:31:31;;;;;;;38.40;20.92;;;;;;;15.21;100.00;94827.44;5041346;28;20430;-78
2023/05/27 04:33:56;;;;;;;37.88;22.70;;;;;;;15.22;100.00;94824.50;5024953;28;20132;-79
2023/05/27 04:36:25;;;;;;;38.58;20.88;;;;;;;15.25;100.00;94825.78;5024041;28;20400;-78
2023/05/27 04:38:51;;;;;;;28.83;19.38;;;;;;;15.55;100.00;94826.44;5041655;28;20040;-78
2023/05/27 04:41:16;;;;;;;30.52;18.52;;;;;;;15.68;100.00;94825.69;5041361;28;20124;-78
2023/05/27 04:43:42;;;;;;;38.95;19.30;;;;;;;15.66;100.00;94835.78;5041197;28;20107;-79
2023/05/27 04:46:07;;;;;;;34.30;19.60;;;;;;;15.38;100.00;94833.00;5024632;28;20028;-79
2023/05/27 04:48:52;;;;;;;31.30;18.65;;;;;;;15.71;100.00;94836.75;5041162;28;20346;-79
2023/05/27 04:51:18;;;;;;;28.83;18.70;;;;;;;15.84;100.00;94831.50;5058534;28;20035;-78
2023/05/27 04:53:45;;;;;;;25.83;17.08;;;;;;;16.05;100.00;94833.84;5058764;28;20032;-79
2023/05/27 04:56:29;;;;;;;33.22;19.45;;;;;;;15.69;100.00;94835.19;5051792;28;20086;-78
2023/05/27 04:59:16;;;;;;;33.55;16.50;;;;;;;15.90;100.00;94842.81;5060574;28;20035;-78
2023/05/27 05:02:11;;;;;;;31.90;17.65;;;;;;;15.74;100.00;94839.63;5061453;28;20047;-79
2023/05/27 05:07:21;;;;;;;29.77;18.77;;;;;;;15.65;100.00;94857.19;5062915;28;20082;-79
2023/05/27 05:09:46;;;;;;;26.80;15.55;;;;;;;16.40;100.00;94857.31;5060698;28;20032;-79
2023/05/27 05:12:12;;;;;;;25.00;15.68;;;;;;;16.88;100.00;94858.81;5078361;28;20042;-79
2023/05/27 05:14:38;;;;;;;28.15;14.40;;;;;;;17.13;100.00;94858.63;5078318;28;20024;-79
2023/05/27 05:17:24;;;;;;;23.17;13.90;;;;;;;17.37;100.00;94866.31;5060182;28;20035;-78
2023/05/27 05:19:49;;;;;;;24.40;15.48;;;;;;;17.74;100.00;94858.34;5077842;28;20346;-79
2023/05/27 05:22:18;;;;;;;25.08;14.57;;;;;;;17.89;100.00;94865.19;5060004;28;20032;-79
2023/05/27 05:24:46;;;;;;;19.02;11.32;;;;;;;18.02;100.00;94867.03;5078137;28;20029;-79
2023/05/27 05:27:30;;;;;;;20.90;12.00;;;;;;;18.54;100.00;94864.94;5043874;28;20036;-78
2023/05/27 05:30:15;;;;;;;20.58;14.85;;;;;;;18.98;100.00;94867.75;5077822;28;20051;-79
2023/05/27 05:32:40;;;;;;;18.70;12.43;;;;;;;19.36;100.00;94875.97;5043378;28;20032;-79
2023/05/27 05:37:50;;;;;;;23.60;12.80;;;;;;;19.74;100.00;94877.28;5062603;28;20047;-78
2023/05/27 05:40:16;;;;;;;19.80;12.15;;;;;;;19.77;100.00;94884.63;5059737;28;20044;-79
2023/05/27 05:42:41;;;;;;;17.95;10.35;;;;;;;19.78;100.00;94880.84;5050915;28;20082;-79
2023/05/27 05:45:07;;;;;;;20.80;10.30;;;;;;;19.67;100.00;94887.56;5059891;28;20028;-79
2023/05/27 05:47:33;;;;;;;15.80;9.27;;;;;;;18.91;100.00;94884.13;5059774;28;20024;-79
2023/05/27 05:52:42;;;;;;;18.15;11.63;;;;;;;18.81;100.00;94881.75;5077519;28;20035;-79
2023/05/27 05:55:26;;;;;;;20.63;12.93;;;;;;;19.26;100.00;94881.59;5059319;28;20333;-79
2023/05/27 05:57:51;;;;;;;22.85;12.07;;;;;;;19.29;100.00;94880.97;5059461;28;20123;-79
2023/05/27 06:03:01;;;;;;;21.58;13.27;;;;;;;17.97;100.00;94876.94;5077190;28;20472;-79
2023/05/27 06:08:11;;;;;;;28.02;14.15;;;;;;;18.72;100.00;94879.84;5061971;28;20035;-79
2023/05/27 06:10:37;;;;;;;28.58;14.95;;;;;;;18.70;100.00;94876.72;5058990;28;20036;-78
2023/05/27 06:13:21;;;;;;;25.45;12.65;;;;;;;18.44;100.00;94873.97;5077202;28;20414;-79
2023/05/27 06:15:46;;;;;;;19.05;13.32;;;;;;;18.41;100.00;94875.34;5059031;28;20040;-79
2023/05/27 06:18:12;;;;;;;27.00;13.45;;;;;;;18.94;100.00;94880.88;5059300;28;20035;-79
2023/05/27 06:20:37;;;;;;;24.75;13.98;;;;;;;18.64;100.00;94884.03;5059197;28;20107;-79
2023/05/27 06:23:03;;;;;;;21.40;12.65;;;;;;;18.98;100.00;94881.03;5059260;28;20028;-79
2023/05/27 06:25:28;;;;;;;22.23;13.07;;;;;;;19.01;100.00;94873.25;5042247;28;20456;-80
2023/05/27 06:27:53;;;;;;;20.83;12.57;;;;;;;17.75;100.00;94875.81;5071257;28;20028;-79
2023/05/27 06:35:47;;;;;;;23.60;15.02;;;;;;;18.31;100.00;94859.69;5061414;28;20472;-79
2023/05/27 06:38:14;;;;;;;24.45;15.63;;;;;;;18.42;100.00;94860.19;5059093;28;20049;-79
2023/05/27 06:40:40;;;;;;;24.95;14.88;;;;;;;18.56;100.00;94860.13;5059293;28;20035;-79
2023/05/27 06:43:06;;;;;;;25.45;13.73;;;;;;;17.49;100.00;94863.16;5076043;28;20044;-79
2023/05/27 06:45:32;;;;;;;34.85;17.40;;;;;;;17.01;100.00;94854.63;5058751;28;20445;-79
2023/05/27 06:47:58;;;;;;;28.50;15.95;;;;;;;17.21;100.00;94853.41;5042573;28;20029;-80
2023/05/27 06:53:26;;;;;;;33.60;17.77;;;;;;;16.96;100.00;94855.47;5041697;28;20523;-79
2023/05/27 06:55:52;;;;;;;33.25;17.88;;;;;;;16.54;100.00;94852.03;5038851;28;20083;-79
2023/05/27 06:58:18;;;;;;;29.20;17.30;;;;;;;16.50;100.00;94846.56;5038774;28;20033;-79
2023/05/27 07:00:43;;;;;;;25.33;15.32;;;;;;;17.25;100.00;94853.59;5056365;28;20091;-79
2023/05/27 07:03:09;;;;;;;29.73;17.35;;;;;;;16.79;100.00;94850.00;5038884;28;20090;-79
2023/05/27 07:08:19;;;;;;;27.60;16.75;;;;;;;16.98;100.00;94852.53;5072715;28;20039;-78
2023/05/27 07:10:45;;;;;;;27.20;16.23;;;;;;;16.93;100.00;94852.66;5041803;28;20032;-78
2023/05/27 07:13:11;;;;;;;23.63;15.50;;;;;;;16.63;100.00;94846.84;5042719;28;20120;-78
2023/05/27 07:15:37;;;;;;;28.08;18.27;;;;;;;16.82;100.00;94844.91;5058386;28;20037;-79
2023/05/27 07:18:02;;;;;;;29.42;18.75;;;;;;;16.90;100.00;94845.28;5058331;28;20362;-79
2023/05/27 07:20:27;;;;;;;29.60;16.80;;;;;;;17.52;100.00;94836.84;5058592;28;20059;-79
2023/05/27 07:23:12;;;;;;;24.70;16.30;;;;;;;17.85;100.00;94843.00;5058708;28;20084;-80
2023/05/27 07:25:37;;;;;;;22.38;14.35;;;;;;;18.70;100.00;94831.59;5061073;28;20115;-80
2023/05/27 07:28:21;;;;;;;22.17;13.73;;;;;;;19.10;100.00;94835.34;5058270;28;20051;-80
2023/05/27 07:30:47;;;;;;;25.67;13.73;;;;;;;19.28;100.00;94836.91;5058886;28;20028;-80
2023/05/27 07:33:13;;;;;;;26.33;14.27;;;;;;;19.18;100.00;94831.91;5041558;28;20033;-80
2023/05/27 07:35:40;;;;;;;23.77;13.30;;;;;;;19.61;100.00;94831.13;5075781;28;20098;-80
2023/05/27 07:38:05;;;;;;;19.38;11.82;;;;;;;20.05;100.00;94833.78;5041996;28;20036;-82
2023/05/27 07:40:31;;;;;;;18.70;12.23;;;;;;;20.25;100.00;94834.19;5041447;28;20085;-81
2023/05/27 07:42:56;;;;;;;18.52;12.43;;;;;;;19.95;100.00;94831.44;5057967;28;20039;-83
2023/05/27 07:45:23;;;;;;;23.08;13.38;;;;;;;19.10;100.00;94824.72;5058038;28;20078;-82
2023/05/27 07:47:49;;;;;;;22.58;13.02;;;;;;;19.07;100.00;94831.41;5058310;28;20126;-81
2023/05/27 07:50:15;;;;;;;22.58;14.07;;;;;;;18.89;100.00;94825.25;5075942;28;20038;-82
2023/05/27 07:52:41;;;;;;;22.33;13.52;;;;;;;19.45;100.00;94830.03;5041724;28;20037;-81
2023/05/27 07:55:07;;;;;;;16.80;11.75;;;;;;;20.39;100.00;94825.22;5057983;28;20096;-84
2023/05/27 07:57:33;;;;;;;16.58;10.60;;;;;;;20.82;100.00;94826.97;5057600;28;20106;-81
2023/05/27 07:59:58;;;;;;;18.65;11.63;;;;;;;20.39;100.00;94826.03;5076049;28;20032;-81
2023/05/27 08:02:25;;;;;;;15.70;9.98;;;;;;;20.89;100.00;94832.56;5041671;28;20461;-81
2023/05/27 08:04:51;;;;;;;16.38;9.45;;;;;;;20.94;100.00;94828.16;5079360;28;20039;-80
2023/05/27 08:07:17;;;;;;;23.05;9.80;;;;;;;21.38;100.00;94822.56;5059024;28;20040;-81
2023/05/27 08:09:43;;;;;;;16.80;9.82;;;;;;;20.92;100.00;94815.16;5079578;28;20035;-81
2023/05/27 08:12:08;;;;;;;17.73;9.70;;;;;;;21.37;100.00;94826.28;5061260;28;20044;-80
2023/05/27 08:14:40;;;;;;;15.80;8.98;;;;;;;21.45;100.00;94812.94;5044973;28;20028;-81
2023/05/27 08:17:06;;;;;;;18.67;9.38;;;;;;;21.73;100.00;94823.09;5061351;28;20422;-81
2023/05/27 08:19:31;;;;;;;17.23;9.70;;;;;;;21.12;100.00;94813.63;5044338;28;20038;-82
2023/05/27 08:24:49;;;;;;;16.75;8.20;;;;;;;22.03;100.00;94812.28;5063842;28;20040;-81
2023/05/27 08:27:34;;;;;;;14.02;9.25;;;;;;;22.26;100.00;94813.78;5057454;28;20043;-81
2023/05/27 08:30:00;;;;;;;18.50;9.40;;;;;;;22.09;100.00;94812.06;5059045;28;20044;-80
2023/05/27 08:32:25;;;;;;;19.95;9.30;;;;;;;22.23;100.00;94809.88;5078920;28;20353;-80
2023/05/27 08:34:51;;;;;;;18.88;10.00;;;;;;;22.13;100.00;94811.06;5060967;28;20036;-80
2023/05/27 08:37:19;;;;;;;16.25;10.02;;;;;;;21.60;100.00;94810.78;5077098;28;20032;-84
2023/05/27 08:39:45;;;;;;;17.70;10.57;;;;;;;21.58;100.00;94807.63;5059258;28;20032;-81
2023/05/27 08:42:10;;;;;;;20.05;10.85;;;;;;;21.02;100.00;94806.03;5059557;28;20028;-81
2023/05/27 08:44:36;;;;;;;23.35;9.95;;;;;;;20.62;100.00;94799.94;5042495;28;20036;-81
2023/05/27 08:47:03;;;;;;;14.70;10.18;;;;;;;20.18;100.00;94802.00;5059428;28;20028;-81
2023/05/27 08:49:29;;;;;;;17.67;10.75;;;;;;;19.95;100.00;94796.13;5078539;28;20020;-81
2023/05/27 08:52:14;;;;;;;17.88;10.50;;;;;;;19.86;100.00;94801.38;5060890;28;20050;-80
2023/05/27 08:54:40;;;;;;;15.75;9.80;;;;;;;20.57;100.00;94794.00;5044301;28;20028;-81
2023/05/27 08:59:51;;;;;;;15.15;9.38;;;;;;;20.65;100.00;94798.50;5063200;28;20039;-80
2023/05/27 09:07:46;;;;;;;15.75;9.18;;;;;;;22.17;100.00;94798.63;5063051;28;20341;-82
2023/05/27 09:13:25;;;;;;;15.55;9.40;;;;;;;21.71;100.00;94809.28;5078002;28;20141;-81
2023/05/27 09:16:15;;;;;;;13.35;7.97;;;;;;;22.42;100.00;94801.34;5060211;28;20078;-81
2023/05/27 09:18:42;;;;;;;18.35;9.52;;;;;;;21.84;100.00;94807.44;5077909;28;20032;-81
2023/05/27 09:21:07;;;;;;;17.67;8.93;;;;;;;22.22;100.00;94808.31;5060279;28;20059;-81
2023/05/27 09:23:37;;;;;;;16.65;9.20;;;;;;;21.73;100.00;94806.28;5059996;28;20071;-81
2023/05/27 09:26:26;;;;;;;15.55;7.57;;;;;;;22.61;100.00;94793.94;5077797;28;20021;-81
2023/05/27 09:29:10;;;;;;;17.08;8.35;;;;;;;21.43;100.00;94803.69;5077830;28;20020;-81
2023/05/27 09:31:40;;;;;;;17.02;8.07;;;;;;;22.92;100.00;94801.34;5060065;28;20031;-86
2023/05/27 09:34:11;;;;;;;17.38;8.23;;;;;;;22.52;100.00;94796.69;5043473;28;20128;-85
2023/05/27 09:36:45;;;;;;;13.00;6.93;;;;;;;22.89;100.00;94796.69;5059518;28;20020;-85
2023/05/27 09:39:11;;;;;;;12.98;7.20;;;;;;;21.93;100.00;94801.22;5043724;28;20127;-85
2023/05/27 09:41:38;;;;;;;11.45;7.70;;;;;;;22.21;100.00;94798.75;5027450;28;20038;-85
2023/05/27 09:44:07;;;;;;;15.13;7.90;;;;;;;22.85;100.00;94796.56;5043320;28;20031;-80
2023/05/27 09:46:33;;;;;;;17.42;8.77;;;;;;;22.90;100.00;94795.56;5060732;28;20025;-80
2023/05/27 09:49:17;;;;;;;14.60;8.38;;;;;;;21.20;100.00;94796.00;5039542;28;20115;-81
2023/05/27 09:51:43;;;;;;;15.68;9.07;;;;;;;22.10;100.00;94792.28;5066888;28;20107;-80
2023/05/27 09:54:09;;;;;;;11.95;7.40;;;;;;;22.70;100.00;94797.25;5059381;28;20119;-79
2023/05/27 09:59:19;;;;;;;14.55;8.00;;;;;;;21.57;100.00;94790.88;5061959;28;20425;-82
2023/05/27 10:01:49;;;;;;;18.90;8.82;;;;;;;21.23;100.00;94799.91;5077287;28;20052;-80
2023/05/27 10:04:15;;;;;;;13.98;8.30;;;;;;;21.26;100.00;94796.59;5059435;28;20319;-81
2023/05/27 10:06:41;;;;;;;14.13;8.57;;;;;;;21.34;100.00;94798.44;5059018;28;20032;-81
2023/05/27 10:09:26;;;;;;;15.50;8.50;;;;;;;20.80;100.00;94793.72;5059253;28;20020;-81
2023/05/27 10:11:53;;;;;;;13.95;7.43;;;;;;;21.33;100.00;94800.31;5059632;28;20040;-81
2023/05/27 10:17:02;;;;;;;19.15;8.27;;;;;;;20.82;100.00;94787.00;5042150;28;20111;-80
2023/05/27 10:19:28;;;;;;;15.88;8.43;;;;;;;20.44;100.00;94785.94;5038938;28;20032;-80
2023/05/27 10:24:40;;;;;;;15.25;7.65;;;;;;;20.31;100.00;94787.72;5041785;28;20099;-81
2023/05/27 10:27:07;;;;;;;19.48;8.35;;;;;;;21.02;100.00;94790.03;5003081;28;20033;-79
2023/05/27 10:29:37;;;;;;;14.50;8.00;;;;;;;21.27;100.00;94785.63;5022816;28;20032;-81
2023/05/27 10:32:21;;;;;;;14.35;8.07;;;;;;;21.80;100.00;94792.41;5022310;28;20024;-81
2023/05/27 10:34:47;;;;;;;16.40;8.00;;;;;;;21.46;100.00;94789.72;5039106;28;20120;-80
2023/05/27 10:37:20;;;;;;;11.43;6.90;;;;;;;21.96;100.00;94784.59;5038428;28;20056;-81
2023/05/27 10:39:56;;;;;;;11.63;6.85;;;;;;;22.29;100.00;94787.19;5038983;28;20040;-81
2023/05/27 10:42:24;;;;;;;15.23;6.97;;;;;;;22.08;100.00;94779.25;5043161;28;20055;-81
2023/05/27 10:45:04;;;;;;;13.30;7.22;;;;;;;22.16;100.00;94780.28;5039298;28;20131;-81
2023/05/27 10:50:13;;;;;;;18.23;7.55;;;;;;;21.58;100.00;94779.09;5055485;28;20035;-81
2023/05/27 10:52:58;;;;;;;12.75;7.43;;;;;;;21.02;100.00;94777.50;5039254;28;20498;-80
2023/05/27 10:55:23;;;;;;;12.18;6.57;;;;;;;20.99;100.00;94772.03;5038228;28;20053;-81
2023/05/27 10:58:07;;;;;;;11.70;6.30;;;;;;;21.78;100.00;94774.06;5055158;28;20083;-80
2023/05/27 11:03:21;;;;;;;10.55;6.65;;;;;;;22.94;100.00;94772.41;5055460;28;20167;-80
2023/05/27 11:06:03;;;;;;;12.85;7.32;;;;;;;22.35;92.86;94769.06;5054505;28;20438;-81
2023/05/27 11:08:33;;;;;;;12.55;6.30;;;;;;;22.43;100.00;94768.19;5069905;28;20024;-81
2023/05/27 11:11:03;;;;;;;12.77;6.70;;;;;;;22.56;100.00;94762.88;5039282;28;20072;-81
2023/05/27 11:13:30;;;;;;;13.38;5.90;;;;;;;20.82;100.00;94770.28;5038550;28;20124;-81
2023/05/27 11:15:55;;;;;;;13.55;6.80;;;;;;;20.78;100.00;94764.78;5038388;28;20052;-81
2023/05/27 11:18:40;;;;;;;11.50;7.30;;;;;;;20.98;100.00;94762.47;5039680;28;20060;-81
2023/05/27 11:21:24;;;;;;;14.25;6.60;;;;;;;21.08;100.00;94764.75;5076333;28;20033;-80
2023/05/27 11:24:08;;;;;;;14.38;6.18;;;;;;;20.80;100.00;94767.88;5058273;28;20035;-82
2023/05/27 11:26:34;;;;;;;11.35;5.90;;;;;;;22.09;100.00;94764.81;5075413;28;20070;-81
2023/05/27 11:29:18;;;;;;;14.23;7.30;;;;;;;22.57;100.00;94757.19;5058294;28;20024;-81
2023/05/27 11:31:47;;;;;;;10.00;6.07;;;;;;;22.97;97.64;94755.72;5041633;28;20074;-81
2023/05/27 11:37:03;;;;;;;10.00;6.18;;;;;;;21.59;100.00;94751.34;5060341;28;20035;-82
2023/05/27 11:39:29;;;;;;;11.70;5.70;;;;;;;21.93;99.20;94747.88;5045858;28;20029;-82
2023/05/27 11:44:50;;;;;;;9.95;5.63;;;;;;;22.09;96.12;94737.34;5064029;28;20046;-82
2023/05/27 11:47:16;;;;;;;8.82;5.57;;;;;;;22.61;100.00;94741.28;5061873;28;20030;-81
2023/05/27 11:49:41;;;;;;;10.80;6.05;;;;;;;22.34;99.17;94734.72;5059189;28;20031;-81
2023/05/27 11:52:07;;;;;;;10.25;5.40;;;;;;;22.57;97.61;94732.41;5061800;28;20028;-81
2023/05/27 11:54:34;;;;;;;11.50;6.60;;;;;;;22.66;100.00;94733.03;5055943;28;20025;-81
2023/05/27 11:57:00;;;;;;;13.50;5.22;;;;;;;21.46;90.55;94729.19;5041254;28;20037;-81
2023/05/27 11:59:25;;;;;;;9.55;5.55;;;;;;;21.43;93.63;94721.06;5059340;28;20060;-82
2023/05/27 12:01:53;;;;;;;11.57;5.95;;;;;;;21.83;100.00;94725.09;5041681;28;20029;-81
2023/05/27 12:04:19;;;;;;;9.38;6.00;;;;;;;22.30;91.15;94719.34;5042042;28;20032;-81
2023/05/27 12:06:45;;;;;;;11.77;5.38;;;;;;;22.56;96.23;94715.59;5042918;28;20058;-81
2023/05/27 12:11:55;;;;;;;12.80;5.60;;;;;;;22.83;91.83;94723.25;5064183;28;20063;-81
2023/05/27 12:14:22;;;;;;;9.27;5.13;;;;;;;22.74;100.00;94710.78;5079273;28;20048;-81
2023/05/27 12:16:47;;;;;;;8.45;5.43;;;;;;;22.31;91.63;94710.25;5060852;28;20040;-80
2023/05/27 12:21:57;;;;;;;11.75;5.90;;;;;;;23.47;92.95;94712.03;5064041;28;20086;-81
2023/05/27 12:24:22;;;;;;;9.75;5.53;;;;;;;23.55;92.80;94705.75;5061734;28;20032;-81
2023/05/27 12:26:47;;;;;;;15.80;6.43;;;;;;;23.93;88.21;94715.13;5060775;28;20112;-81
2023/05/27 12:29:13;;;;;;;9.50;5.80;;;;;;;23.41;83.13;94706.16;5079034;28;20085;-81
2023/05/27 12:31:38;;;;;;;10.48;5.97;;;;;;;23.37;83.25;94700.72;5061611;28;20035;-81
2023/05/27 12:34:23;;;;;;;12.43;6.43;;;;;;;22.65;88.15;94704.03;5061539;28;20236;-81
2023/05/27 12:36:48;;;;;;;12.60;6.15;;;;;;;23.83;94.10;94700.38;5078551;28;20054;-81
2023/05/27 12:39:14;;;;;;;10.40;6.22;;;;;;;24.10;94.20;94698.00;5078857;28;20029;-80
2023/05/27 12:41:39;;;;;;;11.48;5.38;;;;;;;24.29;85.71;94697.25;5061001;28;20036;-81
2023/05/27 12:44:05;;;;;;;12.77;6.50;;;;;;;23.77;86.44;94691.03;5061136;28;20354;-81
2023/05/27 12:46:30;;;;;;;9.82;5.80;;;;;;;23.81;81.63;94694.56;5078277;28;20077;-81
2023/05/27 12:49:14;;;;;;;8.20;5.22;;;;;;;23.02;97.94;94685.22;5059976;28;20028;-81
2023/05/27 12:51:40;;;;;;;13.43;5.75;;;;;;;23.67;85.65;94691.53;5060780;28;20055;-81
2023/05/27 12:54:05;;;;;;;10.00;5.60;;;;;;;23.96;90.04;94684.25;5060769;28;20024;-81
2023/05/27 12:56:31;;;;;;;10.40;5.68;;;;;;;24.03;86.78;94687.09;5060156;28;20330;-81
2023/05/27 12:59:15;;;;;;;14.30;6.60;;;;;;;24.03;86.30;94684.44;5060566;28;20111;-81
2023/05/27 13:01:40;;;;;;;12.70;6.13;;;;;;;24.15;88.52;94680.88;5060624;28;20039;-80